createdAt,value
2023-01-05T00:01:10.783Z,17.60
2023-01-05T00:03:38.209Z,17.61
2023-01-05T00:06:11.288Z,17.61
2023-01-05T00:08:38.579Z,17.58
2023-01-05T00:11:31.285Z,17.59
2023-01-05T00:14:18.612Z,17.58
2023-01-05T00:17:04.408Z,17.59
2023-01-05T00:19:50.778Z,17.59
2023-01-05T00:22:32.203Z,17.56
2023-01-05T00:25:12.258Z,17.58
2023-01-05T00:27:41.702Z,17.59
2023-01-05T00:30:10.824Z,17.56
2023-01-05T00:32:37.575Z,17.54
2023-01-05T00:35:04.978Z,17.54
2023-01-05T00:37:33.571Z,17.53
2023-01-05T00:40:00.231Z,17.55
2023-01-05T00:42:27.876Z,17.53
2023-01-05T00:44:54.562Z,17.54
2023-01-05T00:47:21.206Z,17.53
2023-01-05T00:49:48.513Z,17.53
2023-01-05T00:52:15.341Z,17.52
2023-01-05T00:54:42.629Z,17.53
2023-01-05T00:57:13.339Z,17.54
2023-01-05T00:59:40.278Z,17.53
2023-01-05T01:02:07.448Z,17.53
2023-01-05T01:04:35.250Z,17.52
2023-01-05T01:07:04.577Z,17.49
2023-01-05T01:09:32.043Z,17.50
2023-01-05T01:11:58.677Z,17.49
2023-01-05T01:14:25.473Z,17.48
2023-01-05T01:16:52.163Z,17.49
2023-01-05T01:19:21.542Z,17.48
2023-01-05T01:21:48.695Z,17.48
2023-01-05T01:24:18.819Z,17.49
2023-01-05T01:26:45.634Z,17.48
2023-01-05T01:29:12.414Z,17.48
2023-01-05T01:31:39.253Z,17.48
2023-01-05T01:34:06.233Z,17.46
2023-01-05T01:36:32.991Z,17.44
2023-01-05T01:39:00.659Z,17.44
2023-01-05T01:41:32.105Z,17.44
2023-01-05T01:43:59.138Z,17.41
2023-01-05T01:46:27.929Z,17.43
2023-01-05T01:49:08.872Z,17.41
2023-01-05T01:51:47.542Z,17.40
2023-01-05T01:54:18.039Z,17.41
2023-01-05T01:56:53.361Z,17.43
2023-01-05T01:59:21.155Z,17.41
2023-01-05T02:01:51.500Z,17.41
2023-01-05T02:04:20.062Z,17.39
2023-01-05T02:06:47.759Z,17.40
2023-01-05T02:09:14.412Z,17.39
2023-01-05T02:12:01.297Z,17.38
2023-01-05T02:14:45.893Z,17.40
2023-01-05T02:17:45.482Z,17.38
2023-01-05T02:20:27.351Z,17.39
2023-01-05T02:23:23.213Z,17.35
2023-01-05T02:26:08.721Z,17.38
2023-01-05T02:28:57.195Z,17.36
2023-01-05T02:31:55.669Z,17.34
2023-01-05T02:34:28.701Z,17.34
2023-01-05T02:37:05.908Z,17.31
2023-01-05T02:39:41.643Z,17.31
2023-01-05T02:42:13.813Z,17.31
2023-01-05T02:44:41.517Z,17.31
2023-01-05T02:47:28.294Z,17.32
2023-01-05T02:50:01.052Z,17.32
2023-01-05T02:52:42.253Z,17.30
2023-01-05T02:55:13.480Z,17.30
2023-01-05T02:57:50.551Z,17.30
2023-01-05T03:00:33.166Z,17.30
2023-01-05T03:03:16.990Z,17.29
2023-01-05T03:05:53.904Z,17.29
2023-01-05T03:08:26.278Z,17.31
2023-01-05T03:11:24.610Z,17.29
2023-01-05T03:14:01.094Z,17.28
2023-01-05T03:16:48.069Z,17.28
2023-01-05T03:19:36.616Z,17.29
2023-01-05T03:22:29.619Z,17.26
2023-01-05T03:25:15.554Z,17.24
2023-01-05T03:28:03.071Z,17.22
2023-01-05T03:30:58.481Z,17.24
2023-01-05T03:34:09.232Z,17.20
2023-01-05T03:37:03.696Z,17.21
2023-01-05T03:39:32.790Z,17.21
2023-01-05T03:42:03.162Z,17.18
2023-01-05T03:44:30.145Z,17.18
2023-01-05T03:46:57.978Z,17.18
2023-01-05T03:49:25.155Z,17.16
2023-01-05T03:51:52.430Z,17.17
2023-01-05T03:54:19.196Z,17.16
2023-01-05T03:56:47.468Z,17.14
2023-01-05T03:59:14.541Z,17.16
2023-01-05T04:01:42.642Z,17.17
2023-01-05T04:04:13.079Z,17.16
2023-01-05T04:06:39.789Z,17.16
2023-01-05T04:09:08.653Z,17.18
2023-01-05T04:11:35.347Z,17.17
2023-01-05T04:14:05.477Z,17.17
2023-01-05T04:16:34.198Z,17.17
2023-01-05T04:19:07.990Z,17.15
2023-01-05T04:21:34.767Z,17.15
2023-01-05T04:24:02.977Z,17.14
2023-01-05T04:26:29.721Z,17.11
2023-01-05T04:28:56.825Z,17.11
2023-01-05T04:31:25.374Z,17.11
2023-01-05T04:33:54.913Z,17.09
2023-01-05T04:36:23.667Z,17.08
2023-01-05T04:38:50.371Z,17.09
2023-01-05T04:41:17.735Z,17.08
2023-01-05T04:43:48.056Z,17.09
2023-01-05T04:46:15.740Z,17.06
2023-01-05T04:48:45.430Z,17.04
2023-01-05T04:51:13.554Z,17.05
2023-01-05T04:53:40.212Z,17.06
2023-01-05T04:56:11.498Z,17.06
2023-01-05T04:58:42.039Z,17.05
2023-01-05T05:01:09.163Z,17.04
2023-01-05T05:03:37.725Z,17.05
2023-01-05T05:06:08.234Z,17.04
2023-01-05T05:08:35.716Z,17.03
2023-01-05T05:11:04.488Z,17.04
2023-01-05T05:13:33.953Z,17.03
2023-01-05T05:16:02.331Z,17.03
2023-01-05T05:18:30.709Z,17.01
2023-01-05T05:20:57.412Z,17.02
2023-01-05T05:23:29.303Z,17.00
2023-01-05T05:25:57.283Z,17.03
2023-01-05T05:28:28.281Z,17.00
2023-01-05T05:30:56.795Z,17.00
2023-01-05T05:33:24.641Z,17.00
2023-01-05T05:35:51.617Z,16.99
2023-01-05T05:38:18.273Z,16.98
2023-01-05T05:40:47.797Z,16.96
2023-01-05T05:43:14.467Z,16.96
2023-01-05T05:45:46.254Z,16.95
2023-01-05T05:48:16.816Z,16.94
2023-01-05T05:50:45.100Z,16.94
2023-01-05T05:53:11.917Z,16.95
2023-01-05T05:55:38.632Z,16.93
2023-01-05T05:58:05.295Z,16.93
2023-01-05T06:00:32.071Z,16.94
2023-01-05T06:02:58.804Z,16.94
2023-01-05T06:05:25.588Z,16.93
2023-01-05T06:07:52.364Z,16.93
2023-01-05T06:10:19.101Z,16.94
2023-01-05T06:12:45.996Z,16.94
2023-01-05T06:15:12.886Z,16.96
2023-01-05T06:17:39.632Z,16.95
2023-01-05T06:20:07.280Z,16.94
2023-01-05T06:22:34.015Z,16.92
2023-01-05T06:25:00.665Z,16.91
2023-01-05T06:27:27.291Z,16.90
2023-01-05T06:29:53.951Z,16.92
2023-01-05T06:32:20.757Z,16.89
2023-01-05T06:34:47.470Z,16.89
2023-01-05T06:37:14.356Z,16.89
2023-01-05T06:39:41.102Z,16.88
2023-01-05T06:42:07.817Z,16.89
2023-01-05T06:44:34.622Z,16.88
2023-01-05T06:47:01.496Z,16.87
2023-01-05T06:49:28.263Z,16.90
2023-01-05T06:51:55.172Z,16.88
2023-01-05T06:54:22.178Z,16.89
2023-01-05T06:56:48.871Z,16.89
2023-01-05T06:59:15.646Z,16.89
2023-01-05T07:01:42.423Z,16.90
2023-01-05T07:04:09.351Z,16.90
2023-01-05T07:06:36.242Z,16.90
2023-01-05T07:09:03.122Z,16.90
2023-01-05T07:11:29.868Z,16.90
2023-01-05T07:13:56.502Z,16.90
2023-01-05T07:16:23.199Z,16.93
2023-01-05T07:18:49.948Z,16.95
2023-01-05T07:21:16.705Z,16.94
2023-01-05T07:23:43.388Z,16.95
2023-01-05T07:26:10.622Z,16.98
2023-01-05T07:28:38.008Z,16.98
2023-01-05T07:31:07.493Z,16.99
2023-01-05T07:33:39.586Z,16.99
2023-01-05T07:36:07.286Z,17.01
2023-01-05T07:38:34.282Z,17.00
2023-01-05T07:41:01.686Z,17.01
2023-01-05T07:43:28.446Z,17.01
2023-01-05T07:46:03.555Z,17.03
2023-01-05T07:48:30.449Z,17.03
2023-01-05T07:51:01.633Z,17.03
2023-01-05T07:53:29.809Z,17.05
2023-01-05T07:56:00.789Z,17.05
2023-01-05T07:58:29.000Z,17.06
2023-01-05T08:00:56.593Z,17.07
2023-01-05T08:03:23.818Z,17.06
2023-01-05T08:05:50.539Z,17.08
2023-01-05T08:08:23.978Z,17.10
2023-01-05T08:10:51.166Z,17.14
2023-01-05T08:13:36.723Z,17.13
2023-01-05T08:16:03.841Z,17.11
2023-01-05T08:18:30.678Z,17.13
2023-01-05T08:21:00.751Z,17.17
2023-01-05T08:23:28.456Z,17.15
2023-01-05T08:25:56.023Z,17.17
2023-01-05T08:28:28.358Z,17.18
2023-01-05T08:31:05.523Z,17.18
2023-01-05T08:33:32.896Z,17.20
2023-01-05T08:36:00.062Z,17.18
2023-01-05T08:38:27.146Z,17.20
2023-01-05T08:40:53.999Z,17.20
2023-01-05T08:43:20.690Z,17.17
2023-01-05T08:45:50.351Z,17.19
2023-01-05T08:48:17.327Z,17.19
2023-01-05T08:50:44.066Z,17.23
2023-01-05T08:53:10.895Z,17.29
2023-01-05T08:55:37.642Z,17.30
2023-01-05T08:58:06.586Z,17.30
2023-01-05T09:00:34.048Z,17.32
2023-01-05T09:03:01.329Z,17.33
2023-01-05T09:05:28.373Z,17.36
2023-01-05T09:07:55.114Z,17.40
2023-01-05T09:10:21.973Z,17.39
2023-01-05T09:12:48.864Z,17.44
2023-01-05T09:15:15.594Z,17.48
2023-01-05T09:17:42.319Z,17.49
2023-01-05T09:20:09.503Z,17.52
2023-01-05T09:22:36.292Z,17.54
2023-01-05T09:25:04.456Z,17.55
2023-01-05T09:27:31.704Z,17.60
2023-01-05T09:29:58.389Z,17.63
2023-01-05T09:32:25.140Z,17.66
2023-01-05T09:34:51.783Z,17.69
2023-01-05T09:37:18.443Z,17.75
2023-01-05T09:39:45.108Z,17.76
2023-01-05T09:42:17.353Z,17.77
2023-01-05T09:44:52.666Z,17.77
2023-01-05T09:47:31.984Z,17.79
2023-01-05T09:50:00.675Z,17.78
2023-01-05T09:52:30.363Z,17.79
2023-01-05T09:54:59.872Z,17.79
2023-01-05T09:57:30.440Z,17.79
2023-01-05T10:00:02.337Z,17.79
2023-01-05T10:02:37.444Z,17.82
2023-01-05T10:05:06.239Z,17.87
2023-01-05T10:07:44.344Z,17.88
2023-01-05T10:11:09.700Z,17.91
2023-01-05T10:13:44.712Z,17.96
2023-01-05T10:16:17.447Z,17.96
2023-01-05T10:18:45.551Z,17.99
2023-01-05T10:21:46.330Z,18.04
2023-01-05T10:24:23.830Z,18.10
2023-01-05T10:27:26.230Z,18.11
2023-01-05T10:30:22.999Z,18.13
2023-01-05T10:33:25.570Z,18.18
2023-01-05T10:39:25.967Z,18.30
2023-01-05T10:41:58.528Z,18.35
2023-01-05T10:44:33.964Z,18.37
2023-01-05T10:47:01.225Z,18.38
2023-01-05T10:49:31.095Z,18.40
2023-01-05T10:52:00.619Z,18.40
2023-01-05T10:54:39.141Z,18.39
2023-01-05T10:57:39.300Z,18.39
2023-01-05T11:00:19.464Z,18.38
2023-01-05T11:02:51.168Z,18.40
2023-01-05T11:05:27.757Z,18.47
2023-01-05T11:08:00.976Z,18.49
2023-01-05T11:10:30.151Z,18.48
2023-01-05T11:13:03.396Z,18.49
2023-01-05T11:15:41.950Z,18.50
2023-01-05T11:18:25.674Z,18.52
2023-01-05T11:21:28.919Z,18.53
2023-01-05T11:23:58.688Z,18.54
2023-01-05T11:26:27.173Z,18.62
2023-01-05T11:29:05.025Z,18.66
2023-01-05T11:31:37.650Z,18.68
2023-01-05T11:34:19.657Z,18.76
2023-01-05T11:37:12.750Z,18.82
2023-01-05T11:39:52.600Z,18.89
2023-01-05T11:42:26.078Z,18.95
2023-01-05T11:45:16.456Z,18.96
2023-01-05T11:48:06.974Z,19.05
2023-01-05T11:50:49.059Z,19.03
2023-01-05T11:53:24.548Z,19.07
2023-01-05T11:56:04.970Z,19.08
2023-01-05T11:58:44.024Z,19.11
2023-01-05T12:01:24.124Z,19.14
2023-01-05T12:04:17.110Z,19.15
2023-01-05T12:06:55.688Z,19.21
2023-01-05T12:09:37.317Z,19.31
2023-01-05T12:12:15.864Z,19.36
2023-01-05T12:14:58.954Z,19.45
2023-01-05T12:17:48.929Z,19.72
2023-01-05T12:20:33.719Z,20.72
2023-01-05T12:23:23.210Z,20.40
2023-01-05T12:26:28.410Z,20.20
2023-01-05T12:30:43.291Z,21.39
2023-01-05T12:35:08.626Z,22.60
2023-01-05T12:37:45.451Z,23.51
2023-01-05T12:40:21.805Z,22.04
2023-01-05T12:43:01.848Z,21.43
2023-01-05T12:45:37.232Z,20.59
2023-01-05T12:48:10.452Z,20.18
2023-01-05T12:50:43.651Z,20.07
2023-01-05T12:53:15.413Z,19.82
2023-01-05T12:55:46.852Z,19.62
2023-01-05T12:58:20.836Z,19.60
2023-01-05T13:00:49.986Z,19.66
2023-01-05T13:03:41.286Z,19.61
2023-01-05T13:06:16.003Z,19.57
2023-01-05T13:08:49.263Z,19.55
2023-01-05T13:11:18.433Z,19.51
2023-01-05T13:13:51.413Z,19.48
2023-01-05T13:16:20.836Z,19.45
2023-01-05T13:18:53.639Z,19.44
2023-01-05T13:21:21.876Z,19.38
2023-01-05T13:23:57.396Z,19.38
2023-01-05T13:26:24.435Z,19.38
2023-01-05T18:34:32.132Z,25.22
2023-01-05T18:45:20.248Z,24.06
2023-01-05T18:47:56.783Z,22.32
2023-01-05T18:50:23.748Z,21.29
2023-01-05T18:52:50.603Z,20.70
2023-01-05T18:55:17.323Z,20.26
2023-01-05T18:57:43.988Z,19.98
2023-01-05T19:00:11.278Z,19.75
2023-01-05T19:02:39.399Z,19.58
2023-01-05T19:05:06.217Z,19.51
2023-01-05T19:07:32.828Z,19.42
2023-01-05T19:09:59.449Z,19.36
2023-01-05T19:12:26.169Z,19.31
2023-01-05T19:28:37.823Z,26.57
2023-01-05T19:31:10.054Z,24.84
2023-01-05T19:33:37.350Z,23.43
2023-01-05T19:36:13.142Z,22.24
2023-01-05T19:38:40.743Z,21.38
2023-01-05T19:41:24.670Z,20.75
2023-01-05T19:43:53.666Z,20.35
2023-01-05T19:46:22.110Z,20.10
2023-01-05T19:48:49.199Z,19.84
2023-01-05T19:51:22.373Z,19.68
2023-01-05T19:54:02.664Z,19.54
2023-01-05T19:56:32.116Z,19.44
2023-01-05T19:59:05.198Z,19.33
2023-01-05T20:01:35.409Z,19.22
2023-01-05T20:04:02.688Z,19.12
2023-01-05T20:06:36.653Z,20.89
2023-01-05T20:09:08.501Z,22.32
2023-01-05T20:11:43.315Z,21.45
2023-01-05T20:14:15.245Z,20.68
2023-01-05T20:16:51.618Z,20.17
2023-01-05T20:19:20.132Z,19.83
2023-01-05T20:21:50.923Z,20.57
2023-01-05T20:24:22.404Z,21.91
2023-01-05T20:26:51.081Z,22.17
2023-01-05T20:29:19.722Z,22.42
2023-01-05T20:31:56.026Z,22.12
2023-01-05T20:34:25.408Z,21.61
2023-01-05T20:40:06.415Z,21.64
2023-01-05T20:42:33.316Z,21.32
2023-01-05T20:45:02.899Z,21.06
2023-01-05T20:47:31.870Z,21.04
2023-01-05T20:50:03.564Z,21.06
2023-01-05T20:52:30.308Z,22.54
2023-01-05T20:56:09.642Z,23.92
2023-01-05T21:02:45.419Z,27.50
2023-01-05T21:05:12.791Z,29.56
2023-01-05T21:07:39.536Z,31.25
2023-01-05T21:10:06.643Z,28.80
2023-01-05T21:12:33.301Z,28.24
2023-01-05T21:15:00.006Z,28.15
2023-01-05T21:17:27.147Z,27.96
2023-01-05T21:19:53.830Z,27.00
2023-01-05T21:22:21.524Z,28.14
2023-01-05T21:24:48.226Z,26.93
2023-01-05T21:27:14.942Z,25.77
2023-01-05T21:29:41.700Z,25.03
2023-01-05T21:32:08.492Z,24.82
2023-01-05T21:34:35.214Z,24.45
2023-01-05T21:37:02.035Z,24.50
2023-01-05T21:39:28.726Z,24.14
2023-01-05T21:42:14.051Z,24.11
2023-01-05T21:44:41.045Z,24.42
2023-01-05T21:47:08.284Z,25.52
2023-01-05T21:49:36.383Z,26.41
2023-01-05T21:52:22.746Z,27.30
2023-01-05T21:55:07.866Z,27.79
2023-01-05T21:57:34.567Z,27.52
2023-01-05T22:07:08.111Z,27.66
2023-01-05T22:09:36.263Z,27.02
2023-01-05T22:12:07.187Z,26.48
2023-01-05T22:14:34.296Z,25.63
2023-01-05T22:19:10.951Z,18.76
2023-01-05T22:21:37.974Z,16.85
2023-01-05T22:24:05.169Z,14.85
2023-01-05T22:26:32.405Z,13.56
2023-01-05T22:28:59.064Z,12.60
2023-01-05T22:31:28.058Z,11.92
2023-01-05T22:33:57.476Z,11.33
2023-01-05T22:36:26.223Z,11.00
2023-01-05T22:38:54.284Z,10.73
2023-01-05T22:41:27.103Z,10.55
2023-01-05T22:43:53.810Z,10.40
2023-01-05T22:46:22.994Z,10.29
2023-01-05T22:48:51.784Z,10.18
2023-01-05T22:51:24.573Z,10.06
2023-01-05T22:53:51.781Z,10.01
2023-01-05T22:56:20.503Z,9.95
2023-01-05T22:58:47.211Z,9.93
2023-01-05T23:01:30.662Z,9.91
2023-01-05T23:03:59.136Z,10.00
2023-01-05T23:06:26.720Z,10.25
2023-01-05T23:08:54.471Z,10.42
2023-01-05T23:11:27.373Z,10.56
2023-01-05T23:13:55.146Z,10.68
2023-01-05T23:16:21.951Z,10.78
2023-01-05T23:18:51.637Z,10.82
2023-01-05T23:21:19.848Z,10.84
2023-01-05T23:23:46.699Z,10.82
2023-01-05T23:26:15.062Z,10.78
2023-01-05T23:28:42.944Z,10.72
2023-01-05T23:31:11.585Z,10.64
2023-01-05T23:33:38.307Z,10.57
2023-01-05T23:36:05.501Z,10.50
2023-01-05T23:38:33.415Z,10.38
2023-01-05T23:41:03.205Z,10.31
2023-01-05T23:43:30.007Z,10.26
2023-01-05T23:46:06.609Z,10.20
2023-01-05T23:48:35.980Z,10.07
2023-01-05T23:51:04.599Z,9.96
2023-01-05T23:53:31.642Z,9.84
2023-01-05T23:56:18.022Z,9.76
2023-01-05T23:58:45.405Z,9.71
